sensor_id;sensor_type;location;lat;lon;timestamp;temperature;humidity
2867;DHT22;1441;48.886;8.728;2022-12-24T00:02:18;11.90;98.60
2867;DHT22;1441;48.886;8.728;2022-12-24T00:04:43;11.90;98.60
2867;DHT22;1441;48.886;8.728;2022-12-24T00:07:09;11.90;99.00
2867;DHT22;1441;48.886;8.728;2022-12-24T00:09:35;11.80;99.10
2867;DHT22;1441;48.886;8.728;2022-12-24T00:12:00;11.80;99.10
2867;DHT22;1441;48.886;8.728;2022-12-24T00:14:26;11.80;99.20
2867;DHT22;1441;48.886;8.728;2022-12-24T00:16:52;11.80;99.10
2867;DHT22;1441;48.886;8.728;2022-12-24T00:19:17;11.80;99.20
2867;DHT22;1441;48.886;8.728;2022-12-24T00:21:43;11.80;98.70
2867;DHT22;1441;48.886;8.728;2022-12-24T00:24:08;11.80;98.90
2867;DHT22;1441;48.886;8.728;2022-12-24T00:26:34;11.70;99.00
2867;DHT22;1441;48.886;8.728;2022-12-24T00:29:00;11.70;99.20
2867;DHT22;1441;48.886;8.728;2022-12-24T00:31:26;11.70;99.60
2867;DHT22;1441;48.886;8.728;2022-12-24T00:33:52;11.60;99.30
2867;DHT22;1441;48.886;8.728;2022-12-24T00:36:18;11.60;99.40
2867;DHT22;1441;48.886;8.728;2022-12-24T00:38:44;11.60;99.20
2867;DHT22;1441;48.886;8.728;2022-12-24T00:41:11;11.60;99.20
2867;DHT22;1441;48.886;8.728;2022-12-24T00:46:15;11.60;99.70
2867;DHT22;1441;48.886;8.728;2022-12-24T00:48:41;11.60;99.90
2867;DHT22;1441;48.886;8.728;2022-12-24T00:51:06;11.60;99.90
2867;DHT22;1441;48.886;8.728;2022-12-24T00:53:32;11.40;99.90
2867;DHT22;1441;48.886;8.728;2022-12-24T00:55:57;11.30;99.90
2867;DHT22;1441;48.886;8.728;2022-12-24T00:58:23;11.10;99.90
2867;DHT22;1441;48.886;8.728;2022-12-24T01:00:48;11.00;99.90
2867;DHT22;1441;48.886;8.728;2022-12-24T01:03:14;11.00;99.90
2867;DHT22;1441;48.886;8.728;2022-12-24T01:05:40;10.90;99.90
2867;DHT22;1441;48.886;8.728;2022-12-24T01:08:05;11.00;99.90
2867;DHT22;1441;48.886;8.728;2022-12-24T01:10:31;10.90;99.90
2867;DHT22;1441;48.886;8.728;2022-12-24T01:12:59;10.90;99.90
2867;DHT22;1441;48.886;8.728;2022-12-24T01:15:25;10.80;99.90
2867;DHT22;1441;48.886;8.728;2022-12-24T01:17:50;10.70;99.90
2867;DHT22;1441;48.886;8.728;2022-12-24T01:20:16;10.70;99.90
2867;DHT22;1441;48.886;8.728;2022-12-24T01:22:42;10.60;99.90
2867;DHT22;1441;48.886;8.728;2022-12-24T01:25:08;10.60;99.90
2867;DHT22;1441;48.886;8.728;2022-12-24T01:27:34;10.60;99.90
2867;DHT22;1441;48.886;8.728;2022-12-24T01:30:00;10.50;99.90
2867;DHT22;1441;48.886;8.728;2022-12-24T01:32:25;10.50;99.90
2867;DHT22;1441;48.886;8.728;2022-12-24T01:34:51;10.50;99.90
2867;DHT22;1441;48.886;8.728;2022-12-24T01:37:16;10.50;99.90
2867;DHT22;1441;48.886;8.728;2022-12-24T01:39:42;10.50;99.90
2867;DHT22;1441;48.886;8.728;2022-12-24T01:42:25;10.50;99.90
2867;DHT22;1441;48.886;8.728;2022-12-24T01:45:49;10.50;99.90
2867;DHT22;1441;48.886;8.728;2022-12-24T01:49:01;10.50;99.90
2867;DHT22;1441;48.886;8.728;2022-12-24T01:53:58;10.40;99.90
2867;DHT22;1441;48.886;8.728;2022-12-24T01:56:25;10.40;99.90
2867;DHT22;1441;48.886;8.728;2022-12-24T01:58:54;10.40;99.90
2867;DHT22;1441;48.886;8.728;2022-12-24T02:01:22;10.40;99.90
2867;DHT22;1441;48.886;8.728;2022-12-24T02:03:48;10.30;99.90
2867;DHT22;1441;48.886;8.728;2022-12-24T02:06:14;10.30;99.90
2867;DHT22;1441;48.886;8.728;2022-12-24T02:08:41;10.30;99.90
2867;DHT22;1441;48.886;8.728;2022-12-24T02:11:21;10.30;99.90
2867;DHT22;1441;48.886;8.728;2022-12-24T02:14:06;10.30;99.90
2867;DHT22;1441;48.886;8.728;2022-12-24T02:25:08;10.10;99.90
2867;DHT22;1441;48.886;8.728;2022-12-24T02:27:46;10.00;99.90
2867;DHT22;1441;48.886;8.728;2022-12-24T02:30:23;10.00;99.90
2867;DHT22;1441;48.886;8.728;2022-12-24T02:35:29;10.00;99.90
2867;DHT22;1441;48.886;8.728;2022-12-24T02:38:10;10.00;99.90
2867;DHT22;1441;48.886;8.728;2022-12-24T02:40:41;10.00;99.90
2867;DHT22;1441;48.886;8.728;2022-12-24T02:43:19;10.10;99.90
2867;DHT22;1441;48.886;8.728;2022-12-24T02:45:58;10.00;99.90
2867;DHT22;1441;48.886;8.728;2022-12-24T02:48:26;9.90;99.90
2867;DHT22;1441;48.886;8.728;2022-12-24T02:51:07;10.00;99.90
2867;DHT22;1441;48.886;8.728;2022-12-24T02:53:34;10.00;99.90
2867;DHT22;1441;48.886;8.728;2022-12-24T02:59:24;10.00;99.90
2867;DHT22;1441;48.886;8.728;2022-12-24T03:07:17;10.00;99.90
2867;DHT22;1441;48.886;8.728;2022-12-24T03:12:27;10.00;99.90
2867;DHT22;1441;48.886;8.728;2022-12-24T03:14:54;10.00;99.90
2867;DHT22;1441;48.886;8.728;2022-12-24T03:17:21;10.00;99.90
2867;DHT22;1441;48.886;8.728;2022-12-24T03:19:47;10.00;99.90
2867;DHT22;1441;48.886;8.728;2022-12-24T03:22:13;10.00;99.90
2867;DHT22;1441;48.886;8.728;2022-12-24T03:24:40;10.10;99.90
2867;DHT22;1441;48.886;8.728;2022-12-24T03:27:07;10.00;99.90
2867;DHT22;1441;48.886;8.728;2022-12-24T03:29:33;10.10;99.90
2867;DHT22;1441;48.886;8.728;2022-12-24T03:32:02;10.10;99.90
2867;DHT22;1441;48.886;8.728;2022-12-24T03:34:28;10.10;99.90
2867;DHT22;1441;48.886;8.728;2022-12-24T03:36:54;10.10;99.90
2867;DHT22;1441;48.886;8.728;2022-12-24T03:39:20;10.10;99.90
2867;DHT22;1441;48.886;8.728;2022-12-24T03:41:45;10.10;99.90
2867;DHT22;1441;48.886;8.728;2022-12-24T03:44:11;10.10;99.90
2867;DHT22;1441;48.886;8.728;2022-12-24T03:46:37;10.10;99.90
2867;DHT22;1441;48.886;8.728;2022-12-24T03:49:02;10.20;99.90
2867;DHT22;1441;48.886;8.728;2022-12-24T03:51:28;10.20;99.90
2867;DHT22;1441;48.886;8.728;2022-12-24T03:53:54;10.20;99.90
2867;DHT22;1441;48.886;8.728;2022-12-24T03:56:21;10.20;99.90
2867;DHT22;1441;48.886;8.728;2022-12-24T03:58:46;10.20;99.90
2867;DHT22;1441;48.886;8.728;2022-12-24T04:01:13;10.20;99.90
2867;DHT22;1441;48.886;8.728;2022-12-24T04:03:38;10.20;99.90
2867;DHT22;1441;48.886;8.728;2022-12-24T04:06:10;10.20;99.90
2867;DHT22;1441;48.886;8.728;2022-12-24T04:08:36;10.10;99.90
2867;DHT22;1441;48.886;8.728;2022-12-24T04:11:06;10.10;99.90
2867;DHT22;1441;48.886;8.728;2022-12-24T04:13:32;10.10;99.90
2867;DHT22;1441;48.886;8.728;2022-12-24T04:16:00;10.10;99.90
2867;DHT22;1441;48.886;8.728;2022-12-24T04:18:26;10.00;99.90
2867;DHT22;1441;48.886;8.728;2022-12-24T04:20:52;10.00;99.90
2867;DHT22;1441;48.886;8.728;2022-12-24T04:23:18;10.00;99.90
2867;DHT22;1441;48.886;8.728;2022-12-24T04:25:43;10.00;99.90
2867;DHT22;1441;48.886;8.728;2022-12-24T04:28:09;10.00;99.90
2867;DHT22;1441;48.886;8.728;2022-12-24T04:30:36;10.00;99.90
2867;DHT22;1441;48.886;8.728;2022-12-24T04:33:02;9.90;99.90
2867;DHT22;1441;48.886;8.728;2022-12-24T04:35:27;9.90;99.90
2867;DHT22;1441;48.886;8.728;2022-12-24T04:37:53;9.90;99.90
2867;DHT22;1441;48.886;8.728;2022-12-24T04:40:19;9.80;99.90
2867;DHT22;1441;48.886;8.728;2022-12-24T04:42:44;9.80;99.90
2867;DHT22;1441;48.886;8.728;2022-12-24T04:45:10;9.80;99.90
2867;DHT22;1441;48.886;8.728;2022-12-24T04:47:35;9.70;99.90
2867;DHT22;1441;48.886;8.728;2022-12-24T04:50:01;9.70;99.90
2867;DHT22;1441;48.886;8.728;2022-12-24T04:52:27;9.70;99.90
2867;DHT22;1441;48.886;8.728;2022-12-24T04:54:53;9.70;99.90
2867;DHT22;1441;48.886;8.728;2022-12-24T04:57:18;9.70;99.90
2867;DHT22;1441;48.886;8.728;2022-12-24T04:59:44;9.70;99.90
2867;DHT22;1441;48.886;8.728;2022-12-24T05:02:09;9.70;99.90
2867;DHT22;1441;48.886;8.728;2022-12-24T05:04:35;9.70;99.90
2867;DHT22;1441;48.886;8.728;2022-12-24T05:07:00;9.70;99.90
2867;DHT22;1441;48.886;8.728;2022-12-24T05:09:26;9.80;99.90
2867;DHT22;1441;48.886;8.728;2022-12-24T05:11:51;9.70;99.90
2867;DHT22;1441;48.886;8.728;2022-12-24T05:14:17;9.70;99.90
2867;DHT22;1441;48.886;8.728;2022-12-24T05:16:42;9.70;99.90
2867;DHT22;1441;48.886;8.728;2022-12-24T05:19:08;9.70;99.90
2867;DHT22;1441;48.886;8.728;2022-12-24T05:21:34;9.70;99.90
2867;DHT22;1441;48.886;8.728;2022-12-24T05:23:59;9.70;99.90
2867;DHT22;1441;48.886;8.728;2022-12-24T05:26:55;9.80;99.90
2867;DHT22;1441;48.886;8.728;2022-12-24T05:29:21;9.80;99.90
2867;DHT22;1441;48.886;8.728;2022-12-24T05:31:47;9.80;99.90
2867;DHT22;1441;48.886;8.728;2022-12-24T05:34:13;9.80;99.90
2867;DHT22;1441;48.886;8.728;2022-12-24T05:36:40;9.80;99.90
2867;DHT22;1441;48.886;8.728;2022-12-24T05:39:06;9.80;99.90
2867;DHT22;1441;48.886;8.728;2022-12-24T05:41:31;9.90;99.90
2867;DHT22;1441;48.886;8.728;2022-12-24T05:43:57;9.90;99.90
2867;DHT22;1441;48.886;8.728;2022-12-24T05:46:24;9.90;99.90
2867;DHT22;1441;48.886;8.728;2022-12-24T05:48:51;9.80;99.90
2867;DHT22;1441;48.886;8.728;2022-12-24T05:51:18;9.80;99.90
2867;DHT22;1441;48.886;8.728;2022-12-24T05:53:44;9.80;99.90
2867;DHT22;1441;48.886;8.728;2022-12-24T05:56:16;9.80;99.90
2867;DHT22;1441;48.886;8.728;2022-12-24T05:58:44;9.80;99.90
2867;DHT22;1441;48.886;8.728;2022-12-24T06:01:10;9.70;99.90
2867;DHT22;1441;48.886;8.728;2022-12-24T06:03:37;9.70;99.90
2867;DHT22;1441;48.886;8.728;2022-12-24T06:06:05;9.70;99.90
2867;DHT22;1441;48.886;8.728;2022-12-24T06:08:33;9.70;99.90
2867;DHT22;1441;48.886;8.728;2022-12-24T06:11:01;9.80;99.90
2867;DHT22;1441;48.886;8.728;2022-12-24T06:13:28;9.80;99.90
2867;DHT22;1441;48.886;8.728;2022-12-24T06:15:58;9.80;99.90
2867;DHT22;1441;48.886;8.728;2022-12-24T06:18:24;9.80;99.90
2867;DHT22;1441;48.886;8.728;2022-12-24T06:20:51;9.80;99.90
2867;DHT22;1441;48.886;8.728;2022-12-24T06:23:17;9.70;99.90
2867;DHT22;1441;48.886;8.728;2022-12-24T06:25:43;9.70;99.90
2867;DHT22;1441;48.886;8.728;2022-12-24T06:28:09;9.70;99.90
2867;DHT22;1441;48.886;8.728;2022-12-24T06:30:34;9.70;99.90
2867;DHT22;1441;48.886;8.728;2022-12-24T06:33:00;9.70;99.90
2867;DHT22;1441;48.886;8.728;2022-12-24T06:35:26;9.70;99.90
2867;DHT22;1441;48.886;8.728;2022-12-24T06:37:51;9.80;99.90
2867;DHT22;1441;48.886;8.728;2022-12-24T06:40:17;9.70;99.90
2867;DHT22;1441;48.886;8.728;2022-12-24T06:42:43;9.70;99.90
2867;DHT22;1441;48.886;8.728;2022-12-24T06:45:08;9.70;99.90
2867;DHT22;1441;48.886;8.728;2022-12-24T06:47:34;9.70;99.90
2867;DHT22;1441;48.886;8.728;2022-12-24T06:50:00;9.80;99.90
2867;DHT22;1441;48.886;8.728;2022-12-24T06:52:25;9.90;99.90
2867;DHT22;1441;48.886;8.728;2022-12-24T06:54:51;9.90;99.90
2867;DHT22;1441;48.886;8.728;2022-12-24T06:57:16;9.90;99.90
2867;DHT22;1441;48.886;8.728;2022-12-24T06:59:42;9.90;99.90
2867;DHT22;1441;48.886;8.728;2022-12-24T07:02:08;9.80;99.90
2867;DHT22;1441;48.886;8.728;2022-12-24T07:04:34;9.80;99.90
2867;DHT22;1441;48.886;8.728;2022-12-24T07:07:00;9.80;99.90
2867;DHT22;1441;48.886;8.728;2022-12-24T07:09:25;9.80;99.90
2867;DHT22;1441;48.886;8.728;2022-12-24T07:11:51;9.80;99.90
2867;DHT22;1441;48.886;8.728;2022-12-24T07:14:16;9.70;99.90
2867;DHT22;1441;48.886;8.728;2022-12-24T07:16:42;9.70;99.90
2867;DHT22;1441;48.886;8.728;2022-12-24T07:19:08;9.80;99.90
2867;DHT22;1441;48.886;8.728;2022-12-24T07:21:33;9.80;99.90
2867;DHT22;1441;48.886;8.728;2022-12-24T07:23:59;9.80;99.90
2867;DHT22;1441;48.886;8.728;2022-12-24T07:26:24;9.80;99.90
2867;DHT22;1441;48.886;8.728;2022-12-24T07:28:50;9.80;99.90
2867;DHT22;1441;48.886;8.728;2022-12-24T07:31:15;9.80;99.90
2867;DHT22;1441;48.886;8.728;2022-12-24T07:33:41;9.90;99.90
2867;DHT22;1441;48.886;8.728;2022-12-24T07:36:09;9.80;99.90
2867;DHT22;1441;48.886;8.728;2022-12-24T07:38:38;9.80;99.90
2867;DHT22;1441;48.886;8.728;2022-12-24T07:41:04;9.80;99.90
2867;DHT22;1441;48.886;8.728;2022-12-24T07:43:32;9.80;99.90
2867;DHT22;1441;48.886;8.728;2022-12-24T07:45:58;9.70;99.90
2867;DHT22;1441;48.886;8.728;2022-12-24T07:48:25;9.70;99.90
2867;DHT22;1441;48.886;8.728;2022-12-24T07:50:51;9.70;99.90
2867;DHT22;1441;48.886;8.728;2022-12-24T07:53:16;9.70;99.90
2867;DHT22;1441;48.886;8.728;2022-12-24T07:55:43;9.70;99.90
2867;DHT22;1441;48.886;8.728;2022-12-24T07:58:08;9.70;99.90
2867;DHT22;1441;48.886;8.728;2022-12-24T08:00:34;9.80;99.90
2867;DHT22;1441;48.886;8.728;2022-12-24T08:03:00;9.70;99.90
2867;DHT22;1441;48.886;8.728;2022-12-24T08:05:26;9.70;99.90
2867;DHT22;1441;48.886;8.728;2022-12-24T08:07:53;9.80;99.90
2867;DHT22;1441;48.886;8.728;2022-12-24T08:10:18;9.80;99.90
2867;DHT22;1441;48.886;8.728;2022-12-24T08:12:44;9.70;99.90
2867;DHT22;1441;48.886;8.728;2022-12-24T08:15:10;9.80;99.90
2867;DHT22;1441;48.886;8.728;2022-12-24T08:17:36;9.80;99.90
2867;DHT22;1441;48.886;8.728;2022-12-24T08:20:02;9.80;99.90
2867;DHT22;1441;48.886;8.728;2022-12-24T08:22:28;9.80;99.90
2867;DHT22;1441;48.886;8.728;2022-12-24T08:24:53;9.80;99.90
2867;DHT22;1441;48.886;8.728;2022-12-24T08:27:19;9.80;99.90
2867;DHT22;1441;48.886;8.728;2022-12-24T08:29:45;9.90;99.90
2867;DHT22;1441;48.886;8.728;2022-12-24T08:32:10;9.90;99.90
2867;DHT22;1441;48.886;8.728;2022-12-24T08:34:36;9.90;99.90
2867;DHT22;1441;48.886;8.728;2022-12-24T08:37:01;9.90;99.90
2867;DHT22;1441;48.886;8.728;2022-12-24T08:39:27;9.90;99.90
2867;DHT22;1441;48.886;8.728;2022-12-24T08:41:52;9.90;99.90
2867;DHT22;1441;48.886;8.728;2022-12-24T08:44:18;9.90;99.90
2867;DHT22;1441;48.886;8.728;2022-12-24T08:46:43;9.90;99.90
2867;DHT22;1441;48.886;8.728;2022-12-24T08:49:09;9.90;99.90
2867;DHT22;1441;48.886;8.728;2022-12-24T08:51:35;9.80;99.90
2867;DHT22;1441;48.886;8.728;2022-12-24T08:54:00;9.90;99.90
2867;DHT22;1441;48.886;8.728;2022-12-24T08:56:26;9.90;99.90
2867;DHT22;1441;48.886;8.728;2022-12-24T08:58:51;9.90;99.90
2867;DHT22;1441;48.886;8.728;2022-12-24T09:01:18;10.00;99.90
2867;DHT22;1441;48.886;8.728;2022-12-24T09:03:45;10.00;99.90
2867;DHT22;1441;48.886;8.728;2022-12-24T09:06:11;10.10;99.90
2867;DHT22;1441;48.886;8.728;2022-12-24T09:08:36;10.20;99.90
2867;DHT22;1441;48.886;8.728;2022-12-24T09:11:10;10.30;99.90
2867;DHT22;1441;48.886;8.728;2022-12-24T09:13:37;10.40;99.90
2867;DHT22;1441;48.886;8.728;2022-12-24T09:16:02;10.40;99.90
2867;DHT22;1441;48.886;8.728;2022-12-24T09:18:29;10.50;99.90
2867;DHT22;1441;48.886;8.728;2022-12-24T09:21:02;10.70;99.90
2867;DHT22;1441;48.886;8.728;2022-12-24T09:23:29;10.60;99.90
2867;DHT22;1441;48.886;8.728;2022-12-24T09:25:55;10.50;99.90
2867;DHT22;1441;48.886;8.728;2022-12-24T09:28:21;10.50;99.90
2867;DHT22;1441;48.886;8.728;2022-12-24T09:30:58;10.50;99.90
2867;DHT22;1441;48.886;8.728;2022-12-24T09:33:24;10.50;99.90
2867;DHT22;1441;48.886;8.728;2022-12-24T09:35:53;10.50;99.90
2867;DHT22;1441;48.886;8.728;2022-12-24T09:38:19;10.40;99.90
2867;DHT22;1441;48.886;8.728;2022-12-24T09:40:45;10.40;99.90
2867;DHT22;1441;48.886;8.728;2022-12-24T09:43:16;10.40;99.90
2867;DHT22;1441;48.886;8.728;2022-12-24T09:46:08;10.40;99.90
2867;DHT22;1441;48.886;8.728;2022-12-24T09:48:39;10.40;99.90
2867;DHT22;1441;48.886;8.728;2022-12-24T09:51:15;10.40;99.90
2867;DHT22;1441;48.886;8.728;2022-12-24T09:53:59;10.40;99.90
2867;DHT22;1441;48.886;8.728;2022-12-24T09:56:29;10.40;99.90
2867;DHT22;1441;48.886;8.728;2022-12-24T09:59:00;10.50;99.90
2867;DHT22;1441;48.886;8.728;2022-12-24T10:01:30;10.40;99.90
2867;DHT22;1441;48.886;8.728;2022-12-24T10:04:02;10.50;99.90
2867;DHT22;1441;48.886;8.728;2022-12-24T10:06:35;10.70;99.90
2867;DHT22;1441;48.886;8.728;2022-12-24T10:12:24;10.50;99.90
2867;DHT22;1441;48.886;8.728;2022-12-24T10:15:18;10.50;99.90
2867;DHT22;1441;48.886;8.728;2022-12-24T10:18:08;10.60;99.90
2867;DHT22;1441;48.886;8.728;2022-12-24T10:20:52;10.70;99.90
2867;DHT22;1441;48.886;8.728;2022-12-24T10:23:45;10.60;99.90
2867;DHT22;1441;48.886;8.728;2022-12-24T10:26:21;10.50;99.90
2867;DHT22;1441;48.886;8.728;2022-12-24T10:29:10;10.50;99.90
2867;DHT22;1441;48.886;8.728;2022-12-24T10:31:57;10.40;99.90
2867;DHT22;1441;48.886;8.728;2022-12-24T10:34:28;10.30;99.90
2867;DHT22;1441;48.886;8.728;2022-12-24T10:36:55;10.40;99.90
2867;DHT22;1441;48.886;8.728;2022-12-24T10:39:23;10.50;99.90
2867;DHT22;1441;48.886;8.728;2022-12-24T10:41:52;10.50;99.90
2867;DHT22;1441;48.886;8.728;2022-12-24T10:44:21;10.40;99.90
2867;DHT22;1441;48.886;8.728;2022-12-24T10:46:48;10.40;99.90
2867;DHT22;1441;48.886;8.728;2022-12-24T10:49:43;10.30;99.90
2867;DHT22;1441;48.886;8.728;2022-12-24T10:52:14;10.30;99.90
2867;DHT22;1441;48.886;8.728;2022-12-24T10:55:20;10.30;99.90
2867;DHT22;1441;48.886;8.728;2022-12-24T10:58:03;10.30;99.90
2867;DHT22;1441;48.886;8.728;2022-12-24T11:00:29;10.20;99.90
2867;DHT22;1441;48.886;8.728;2022-12-24T11:05:36;10.70;99.90
2867;DHT22;1441;48.886;8.728;2022-12-24T11:08:17;10.60;99.90
2867;DHT22;1441;48.886;8.728;2022-12-24T11:10:54;10.40;99.90
2867;DHT22;1441;48.886;8.728;2022-12-24T11:13:33;10.40;99.90
2867;DHT22;1441;48.886;8.728;2022-12-24T11:16:29;10.40;99.90
2867;DHT22;1441;48.886;8.728;2022-12-24T11:18:58;10.30;99.90
2867;DHT22;1441;48.886;8.728;2022-12-24T11:23:58;10.30;99.90
2867;DHT22;1441;48.886;8.728;2022-12-24T11:26:29;10.30;99.90
2867;DHT22;1441;48.886;8.728;2022-12-24T11:29:14;10.30;99.90
2867;DHT22;1441;48.886;8.728;2022-12-24T11:31:42;10.20;99.90
2867;DHT22;1441;48.886;8.728;2022-12-24T11:34:29;10.20;99.90
2867;DHT22;1441;48.886;8.728;2022-12-24T11:39:39;10.30;99.90
2867;DHT22;1441;48.886;8.728;2022-12-24T11:42:05;10.30;99.90
2867;DHT22;1441;48.886;8.728;2022-12-24T11:44:31;10.20;99.90
2867;DHT22;1441;48.886;8.728;2022-12-24T11:46:57;10.20;99.90
2867;DHT22;1441;48.886;8.728;2022-12-24T11:49:28;10.30;99.90
2867;DHT22;1441;48.886;8.728;2022-12-24T11:57:27;10.40;99.90
2867;DHT22;1441;48.886;8.728;2022-12-24T11:59:55;10.40;99.90
2867;DHT22;1441;48.886;8.728;2022-12-24T12:02:33;10.60;99.90
2867;DHT22;1441;48.886;8.728;2022-12-24T12:05:16;10.60;99.90
2867;DHT22;1441;48.886;8.728;2022-12-24T12:07:46;10.60;99.90
2867;DHT22;1441;48.886;8.728;2022-12-24T12:10:29;10.80;99.90
2867;DHT22;1441;48.886;8.728;2022-12-24T12:13:06;10.90;99.90
2867;DHT22;1441;48.886;8.728;2022-12-24T12:15:38;10.90;99.90
2867;DHT22;1441;48.886;8.728;2022-12-24T12:20:51;11.00;99.90
2867;DHT22;1441;48.886;8.728;2022-12-24T12:23:32;10.90;99.90
2867;DHT22;1441;48.886;8.728;2022-12-24T12:26:11;10.80;99.90
2867;DHT22;1441;48.886;8.728;2022-12-24T12:31:33;11.10;99.90
2867;DHT22;1441;48.886;8.728;2022-12-24T12:34:19;11.10;99.90
2867;DHT22;1441;48.886;8.728;2022-12-24T12:39:18;11.50;99.90
2867;DHT22;1441;48.886;8.728;2022-12-24T12:50:23;12.20;99.90
2867;DHT22;1441;48.886;8.728;2022-12-24T12:58:55;11.80;99.90
2867;DHT22;1441;48.886;8.728;2022-12-24T13:01:49;11.80;99.90
2867;DHT22;1441;48.886;8.728;2022-12-24T13:04:40;11.90;99.90
2867;DHT22;1441;48.886;8.728;2022-12-24T13:07:25;11.80;99.90
2867;DHT22;1441;48.886;8.728;2022-12-24T13:17:58;11.70;99.90
2867;DHT22;1441;48.886;8.728;2022-12-24T13:20:31;11.60;99.90
2867;DHT22;1441;48.886;8.728;2022-12-24T13:23:12;11.50;99.90
2867;DHT22;1441;48.886;8.728;2022-12-24T13:25:41;11.50;99.90
2867;DHT22;1441;48.886;8.728;2022-12-24T13:30:52;11.40;99.90
2867;DHT22;1441;48.886;8.728;2022-12-24T13:38:33;11.20;99.90
2867;DHT22;1441;48.886;8.728;2022-12-24T13:47:03;11.20;99.90
2867;DHT22;1441;48.886;8.728;2022-12-24T13:49:41;11.10;99.90
2867;DHT22;1441;48.886;8.728;2022-12-24T14:08:05;11.20;99.90
2867;DHT22;1441;48.886;8.728;2022-12-24T14:10:38;11.30;99.90
2867;DHT22;1441;48.886;8.728;2022-12-24T14:13:04;11.50;99.90
2867;DHT22;1441;48.886;8.728;2022-12-24T14:18:21;11.60;99.60
2867;DHT22;1441;48.886;8.728;2022-12-24T14:20:53;11.70;99.30
2867;DHT22;1441;48.886;8.728;2022-12-24T14:23:42;11.60;99.90
2867;DHT22;1441;48.886;8.728;2022-12-24T14:26:16;11.50;99.90
2867;DHT22;1441;48.886;8.728;2022-12-24T14:28:47;11.60;99.90
2867;DHT22;1441;48.886;8.728;2022-12-24T14:31:17;11.60;99.90
2867;DHT22;1441;48.886;8.728;2022-12-24T14:33:44;11.70;98.90
2867;DHT22;1441;48.886;8.728;2022-12-24T14:36:12;11.70;98.70
2867;DHT22;1441;48.886;8.728;2022-12-24T14:38:40;11.70;98.00
2867;DHT22;1441;48.886;8.728;2022-12-24T14:44:22;11.30;99.90
2867;DHT22;1441;48.886;8.728;2022-12-24T14:46:55;11.20;99.90
2867;DHT22;1441;48.886;8.728;2022-12-24T14:52:37;11.10;99.90
2867;DHT22;1441;48.886;8.728;2022-12-24T14:55:27;11.00;99.90
2867;DHT22;1441;48.886;8.728;2022-12-24T14:58:16;10.90;99.90
2867;DHT22;1441;48.886;8.728;2022-12-24T15:00:42;10.90;99.90
2867;DHT22;1441;48.886;8.728;2022-12-24T15:03:13;10.90;99.90
2867;DHT22;1441;48.886;8.728;2022-12-24T15:05:39;11.10;99.90
2867;DHT22;1441;48.886;8.728;2022-12-24T15:08:11;11.30;99.10
2867;DHT22;1441;48.886;8.728;2022-12-24T15:10:45;11.40;98.00
2867;DHT22;1441;48.886;8.728;2022-12-24T15:13:34;11.50;97.60
2867;DHT22;1441;48.886;8.728;2022-12-24T15:16:01;11.30;98.90
2867;DHT22;1441;48.886;8.728;2022-12-24T15:18:31;11.30;98.20
2867;DHT22;1441;48.886;8.728;2022-12-24T15:21:00;11.20;98.60
2867;DHT22;1441;48.886;8.728;2022-12-24T15:23:32;11.10;99.50
2867;DHT22;1441;48.886;8.728;2022-12-24T15:28:48;11.10;98.70
2867;DHT22;1441;48.886;8.728;2022-12-24T15:31:25;11.20;98.20
2867;DHT22;1441;48.886;8.728;2022-12-24T15:33:54;11.20;98.30
2867;DHT22;1441;48.886;8.728;2022-12-24T15:36:29;11.10;98.40
2867;DHT22;1441;48.886;8.728;2022-12-24T15:38:57;11.00;98.70
2867;DHT22;1441;48.886;8.728;2022-12-24T15:41:30;11.00;98.70
2867;DHT22;1441;48.886;8.728;2022-12-24T15:44:01;11.10;98.70
2867;DHT22;1441;48.886;8.728;2022-12-24T15:46:30;10.90;99.50
2867;DHT22;1441;48.886;8.728;2022-12-24T15:48:58;10.90;99.10
2867;DHT22;1441;48.886;8.728;2022-12-24T15:51:29;11.10;98.20
2867;DHT22;1441;48.886;8.728;2022-12-24T15:54:01;11.20;97.50
2867;DHT22;1441;48.886;8.728;2022-12-24T16:01:37;11.10;97.60
2867;DHT22;1441;48.886;8.728;2022-12-24T16:04:20;11.10;97.70
2867;DHT22;1441;48.886;8.728;2022-12-24T16:14:49;10.60;99.90
2867;DHT22;1441;48.886;8.728;2022-12-24T16:17:23;10.60;99.90
2867;DHT22;1441;48.886;8.728;2022-12-24T16:19:51;10.50;99.90
2867;DHT22;1441;48.886;8.728;2022-12-24T16:22:19;10.50;99.90
2867;DHT22;1441;48.886;8.728;2022-12-24T16:25:02;10.50;99.90
2867;DHT22;1441;48.886;8.728;2022-12-24T16:27:40;10.60;99.80
2867;DHT22;1441;48.886;8.728;2022-12-24T16:30:07;10.60;99.50
2867;DHT22;1441;48.886;8.728;2022-12-24T16:32:35;10.70;99.40
2867;DHT22;1441;48.886;8.728;2022-12-24T16:35:03;10.60;99.90
2867;DHT22;1441;48.886;8.728;2022-12-24T16:37:29;10.50;99.90
2867;DHT22;1441;48.886;8.728;2022-12-24T16:39:55;10.50;99.90
2867;DHT22;1441;48.886;8.728;2022-12-24T16:42:21;10.40;99.90
2867;DHT22;1441;48.886;8.728;2022-12-24T16:45:06;10.40;99.90
2867;DHT22;1441;48.886;8.728;2022-12-24T16:47:33;10.30;99.90
2867;DHT22;1441;48.886;8.728;2022-12-24T16:50:01;10.40;99.90
2867;DHT22;1441;48.886;8.728;2022-12-24T16:52:29;10.50;99.90
2867;DHT22;1441;48.886;8.728;2022-12-24T16:54:58;10.50;99.90
2867;DHT22;1441;48.886;8.728;2022-12-24T16:57:23;10.60;99.90
2867;DHT22;1441;48.886;8.728;2022-12-24T16:59:50;10.60;99.90
2867;DHT22;1441;48.886;8.728;2022-12-24T17:02:19;10.50;99.90
2867;DHT22;1441;48.886;8.728;2022-12-24T17:04:45;10.40;99.90
2867;DHT22;1441;48.886;8.728;2022-12-24T17:07:12;10.40;99.90
2867;DHT22;1441;48.886;8.728;2022-12-24T17:09:38;10.40;99.90
2867;DHT22;1441;48.886;8.728;2022-12-24T17:12:04;10.40;99.90
2867;DHT22;1441;48.886;8.728;2022-12-24T17:14:29;10.40;99.90
2867;DHT22;1441;48.886;8.728;2022-12-24T17:16:55;10.40;99.90
2867;DHT22;1441;48.886;8.728;2022-12-24T17:19:21;10.60;99.90
2867;DHT22;1441;48.886;8.728;2022-12-24T17:21:46;10.60;99.60
2867;DHT22;1441;48.886;8.728;2022-12-24T17:24:12;10.50;99.90
2867;DHT22;1441;48.886;8.728;2022-12-24T17:26:39;10.50;99.90
2867;DHT22;1441;48.886;8.728;2022-12-24T17:29:04;10.40;99.90
2867;DHT22;1441;48.886;8.728;2022-12-24T17:31:31;10.40;99.90
2867;DHT22;1441;48.886;8.728;2022-12-24T17:33:57;10.40;99.90
2867;DHT22;1441;48.886;8.728;2022-12-24T17:36:23;10.40;99.90
2867;DHT22;1441;48.886;8.728;2022-12-24T17:38:50;10.40;99.90
2867;DHT22;1441;48.886;8.728;2022-12-24T17:41:17;10.40;99.90
2867;DHT22;1441;48.886;8.728;2022-12-24T17:43:43;10.50;99.90
2867;DHT22;1441;48.886;8.728;2022-12-24T17:46:13;10.50;99.90
2867;DHT22;1441;48.886;8.728;2022-12-24T17:48:40;10.60;99.70
2867;DHT22;1441;48.886;8.728;2022-12-24T17:51:08;10.90;98.50
2867;DHT22;1441;48.886;8.728;2022-12-24T17:53:35;10.90;98.20
2867;DHT22;1441;48.886;8.728;2022-12-24T17:56:02;11.10;97.40
2867;DHT22;1441;48.886;8.728;2022-12-24T17:58:28;11.10;97.20
2867;DHT22;1441;48.886;8.728;2022-12-24T18:00:54;11.10;97.20
2867;DHT22;1441;48.886;8.728;2022-12-24T18:03:21;11.00;97.30
2867;DHT22;1441;48.886;8.728;2022-12-24T18:05:47;11.00;97.30
2867;DHT22;1441;48.886;8.728;2022-12-24T18:08:13;10.90;97.80
2867;DHT22;1441;48.886;8.728;2022-12-24T18:10:39;10.90;97.80
2867;DHT22;1441;48.886;8.728;2022-12-24T18:13:05;10.90;97.70
2867;DHT22;1441;48.886;8.728;2022-12-24T18:15:36;10.90;97.70
2867;DHT22;1441;48.886;8.728;2022-12-24T18:18:03;10.80;97.70
2867;DHT22;1441;48.886;8.728;2022-12-24T18:20:30;10.80;97.70
2867;DHT22;1441;48.886;8.728;2022-12-24T18:22:56;10.80;97.30
2867;DHT22;1441;48.886;8.728;2022-12-24T18:25:21;10.80;97.30
2867;DHT22;1441;48.886;8.728;2022-12-24T18:27:47;10.80;97.40
2867;DHT22;1441;48.886;8.728;2022-12-24T18:30:13;10.90;97.20
2867;DHT22;1441;48.886;8.728;2022-12-24T18:32:39;10.90;96.90